sensor_id;sensor_type;location;lat;lon;timestamp;pressure;altitude;pressure_sealevel;temperature;humidity
69751;BME280;57335;52.288;6.056;2022-12-11T00:02:07;101186.28;;;-0.41;100.00
69751;BME280;57335;52.288;6.056;2022-12-11T00:04:34;101176.72;;;-0.50;100.00
69751;BME280;57335;52.288;6.056;2022-12-11T00:07:00;101178.78;;;-0.44;100.00
69751;BME280;57335;52.288;6.056;2022-12-11T00:09:28;101176.09;;;-0.43;100.00
69751;BME280;57335;52.288;6.056;2022-12-11T00:11:54;101178.47;;;-0.51;100.00
69751;BME280;57335;52.288;6.056;2022-12-11T00:14:21;101164.53;;;-0.48;100.00
69751;BME280;57335;52.288;6.056;2022-12-11T00:16:47;101179.75;;;-0.45;100.00
69751;BME280;57335;52.288;6.056;2022-12-11T00:19:14;101176.53;;;-0.37;100.00
69751;BME280;57335;52.288;6.056;2022-12-11T00:21:40;101172.19;;;-0.37;100.00
69751;BME280;57335;52.288;6.056;2022-12-11T00:24:06;101171.97;;;-0.34;100.00
69751;BME280;57335;52.288;6.056;2022-12-11T00:26:33;101166.25;;;-0.37;100.00
69751;BME280;57335;52.288;6.056;2022-12-11T00:28:59;101155.38;;;-0.41;100.00
69751;BME280;57335;52.288;6.056;2022-12-11T00:31:26;101162.41;;;-0.43;100.00
69751;BME280;57335;52.288;6.056;2022-12-11T00:33:52;101157.72;;;-0.38;100.00
69751;BME280;57335;52.288;6.056;2022-12-11T00:36:22;101164.34;;;-0.35;100.00
69751;BME280;57335;52.288;6.056;2022-12-11T00:38:49;101172.88;;;-0.35;100.00
69751;BME280;57335;52.288;6.056;2022-12-11T00:41:16;101172.94;;;-0.25;100.00
69751;BME280;57335;52.288;6.056;2022-12-11T00:43:43;101175.66;;;-0.27;100.00
69751;BME280;57335;52.288;6.056;2022-12-11T00:46:10;101154.34;;;-0.29;100.00
69751;BME280;57335;52.288;6.056;2022-12-11T00:48:37;101176.09;;;-0.22;100.00
69751;BME280;57335;52.288;6.056;2022-12-11T00:51:03;101168.88;;;-0.28;100.00
69751;BME280;57335;52.288;6.056;2022-12-11T00:53:30;101169.56;;;-0.26;100.00
69751;BME280;57335;52.288;6.056;2022-12-11T00:55:56;101180.72;;;-0.15;100.00
69751;BME280;57335;52.288;6.056;2022-12-11T00:58:23;101165.78;;;-0.22;100.00
69751;BME280;57335;52.288;6.056;2022-12-11T01:00:49;101162.38;;;-0.22;100.00
69751;BME280;57335;52.288;6.056;2022-12-11T01:03:16;101155.50;;;-0.22;100.00
69751;BME280;57335;52.288;6.056;2022-12-11T01:05:50;101171.00;;;-0.12;100.00
69751;BME280;57335;52.288;6.056;2022-12-11T01:08:16;101154.81;;;-0.24;100.00
69751;BME280;57335;52.288;6.056;2022-12-11T01:10:43;101174.63;;;-0.14;100.00
69751;BME280;57335;52.288;6.056;2022-12-11T01:13:09;101169.06;;;-0.19;100.00
69751;BME280;57335;52.288;6.056;2022-12-11T01:15:42;101158.44;;;-0.26;100.00
69751;BME280;57335;52.288;6.056;2022-12-11T01:18:13;101159.00;;;-0.23;100.00
69751;BME280;57335;52.288;6.056;2022-12-11T01:20:40;101166.91;;;-0.14;100.00
69751;BME280;57335;52.288;6.056;2022-12-11T01:23:07;101159.13;;;-0.24;100.00
69751;BME280;57335;52.288;6.056;2022-12-11T01:25:34;101156.28;;;-0.21;100.00
69751;BME280;57335;52.288;6.056;2022-12-11T01:28:01;101163.91;;;-0.19;100.00
69751;BME280;57335;52.288;6.056;2022-12-11T01:30:27;101163.63;;;-0.16;100.00
69751;BME280;57335;52.288;6.056;2022-12-11T01:32:54;101166.09;;;-0.15;100.00
69751;BME280;57335;52.288;6.056;2022-12-11T01:35:20;101169.63;;;-0.16;100.00
69751;BME280;57335;52.288;6.056;2022-12-11T01:37:47;101164.72;;;-0.19;100.00
69751;BME280;57335;52.288;6.056;2022-12-11T01:40:16;101164.72;;;-0.19;100.00
69751;BME280;57335;52.288;6.056;2022-12-11T01:42:43;101180.34;;;-0.11;100.00
69751;BME280;57335;52.288;6.056;2022-12-11T01:45:30;101176.69;;;-0.08;100.00
69751;BME280;57335;52.288;6.056;2022-12-11T01:48:01;101169.09;;;-0.10;100.00
69751;BME280;57335;52.288;6.056;2022-12-11T01:50:31;101166.53;;;-0.10;100.00
69751;BME280;57335;52.288;6.056;2022-12-11T01:52:58;101161.38;;;-0.10;100.00
69751;BME280;57335;52.288;6.056;2022-12-11T01:55:25;101169.16;;;0.00;100.00
69751;BME280;57335;52.288;6.056;2022-12-11T01:57:52;101155.84;;;-0.05;100.00
69751;BME280;57335;52.288;6.056;2022-12-11T02:00:20;101155.97;;;-0.07;100.00
69751;BME280;57335;52.288;6.056;2022-12-11T02:02:46;101158.28;;;-0.04;100.00
69751;BME280;57335;52.288;6.056;2022-12-11T02:05:13;101159.38;;;0.04;100.00
69751;BME280;57335;52.288;6.056;2022-12-11T02:07:43;101160.72;;;-0.02;100.00
69751;BME280;57335;52.288;6.056;2022-12-11T02:10:11;101156.53;;;-0.03;100.00
69751;BME280;57335;52.288;6.056;2022-12-11T02:12:51;101150.69;;;-0.05;100.00
69751;BME280;57335;52.288;6.056;2022-12-11T02:20:44;101152.84;;;-0.01;100.00
69751;BME280;57335;52.288;6.056;2022-12-11T02:26:06;101159.44;;;0.13;100.00
69751;BME280;57335;52.288;6.056;2022-12-11T02:28:58;101153.34;;;0.14;100.00
69751;BME280;57335;52.288;6.056;2022-12-11T02:31:35;101156.16;;;0.11;100.00
69751;BME280;57335;52.288;6.056;2022-12-11T02:34:24;101158.75;;;0.11;100.00
69751;BME280;57335;52.288;6.056;2022-12-11T02:36:56;101146.66;;;0.02;100.00
69751;BME280;57335;52.288;6.056;2022-12-11T02:39:25;101142.72;;;0.08;100.00
69751;BME280;57335;52.288;6.056;2022-12-11T02:41:54;101148.03;;;0.06;100.00
69751;BME280;57335;52.288;6.056;2022-12-11T02:44:27;101148.84;;;0.07;100.00
69751;BME280;57335;52.288;6.056;2022-12-11T02:46:56;101136.59;;;-0.01;100.00
69751;BME280;57335;52.288;6.056;2022-12-11T02:49:23;101138.78;;;0.04;100.00
69751;BME280;57335;52.288;6.056;2022-12-11T02:51:51;101137.03;;;0.04;100.00
69751;BME280;57335;52.288;6.056;2022-12-11T02:54:25;101140.97;;;0.08;100.00
69751;BME280;57335;52.288;6.056;2022-12-11T02:56:57;101152.66;;;0.12;100.00
69751;BME280;57335;52.288;6.056;2022-12-11T02:59:33;101132.00;;;0.03;100.00
69751;BME280;57335;52.288;6.056;2022-12-11T03:02:02;101141.38;;;0.13;100.00
69751;BME280;57335;52.288;6.056;2022-12-11T03:04:29;101127.66;;;0.03;100.00
69751;BME280;57335;52.288;6.056;2022-12-11T03:06:57;101133.66;;;0.13;100.00
69751;BME280;57335;52.288;6.056;2022-12-11T03:09:26;101118.72;;;0.07;100.00
69751;BME280;57335;52.288;6.056;2022-12-11T03:11:53;101116.94;;;0.08;100.00
69751;BME280;57335;52.288;6.056;2022-12-11T03:14:19;101135.59;;;0.21;100.00
69751;BME280;57335;52.288;6.056;2022-12-11T03:19:42;101120.81;;;0.23;100.00
69751;BME280;57335;52.288;6.056;2022-12-11T03:22:20;101120.25;;;0.19;100.00
69751;BME280;57335;52.288;6.056;2022-12-11T03:24:56;101116.63;;;0.22;100.00
69751;BME280;57335;52.288;6.056;2022-12-11T03:27:51;101107.13;;;0.23;100.00
69751;BME280;57335;52.288;6.056;2022-12-11T03:30:21;101110.25;;;0.26;100.00
69751;BME280;57335;52.288;6.056;2022-12-11T03:32:52;101124.34;;;0.32;100.00
69751;BME280;57335;52.288;6.056;2022-12-11T03:35:24;101123.25;;;0.25;100.00
69751;BME280;57335;52.288;6.056;2022-12-11T03:37:52;101121.25;;;0.28;100.00
69751;BME280;57335;52.288;6.056;2022-12-11T03:40:20;101120.41;;;0.28;100.00
69751;BME280;57335;52.288;6.056;2022-12-11T03:42:50;101138.06;;;0.32;100.00
69751;BME280;57335;52.288;6.056;2022-12-11T03:45:19;101122.47;;;0.24;100.00
69751;BME280;57335;52.288;6.056;2022-12-11T03:47:46;101117.16;;;0.26;100.00
69751;BME280;57335;52.288;6.056;2022-12-11T03:50:15;101126.25;;;0.30;100.00
69751;BME280;57335;52.288;6.056;2022-12-11T03:52:45;101131.03;;;0.34;100.00
69751;BME280;57335;52.288;6.056;2022-12-11T03:55:14;101118.63;;;0.18;100.00
69751;BME280;57335;52.288;6.056;2022-12-11T03:57:42;101116.88;;;0.19;100.00
69751;BME280;57335;52.288;6.056;2022-12-11T04:00:11;101122.31;;;0.26;100.00
69751;BME280;57335;52.288;6.056;2022-12-11T04:02:39;101125.72;;;0.26;100.00
69751;BME280;57335;52.288;6.056;2022-12-11T04:05:06;101121.63;;;0.24;100.00
69751;BME280;57335;52.288;6.056;2022-12-11T04:07:34;101116.91;;;0.29;100.00
69751;BME280;57335;52.288;6.056;2022-12-11T04:10:01;101124.34;;;0.32;100.00
69751;BME280;57335;52.288;6.056;2022-12-11T04:12:27;101118.78;;;0.27;100.00
69751;BME280;57335;52.288;6.056;2022-12-11T04:14:53;101117.69;;;0.29;100.00
69751;BME280;57335;52.288;6.056;2022-12-11T04:17:20;101110.38;;;0.25;100.00
69751;BME280;57335;52.288;6.056;2022-12-11T04:19:46;101119.34;;;0.30;100.00
69751;BME280;57335;52.288;6.056;2022-12-11T04:22:13;101118.13;;;0.34;100.00
69751;BME280;57335;52.288;6.056;2022-12-11T04:24:40;101101.69;;;0.26;100.00
69751;BME280;57335;52.288;6.056;2022-12-11T04:27:07;101099.78;;;0.28;100.00
69751;BME280;57335;52.288;6.056;2022-12-11T04:29:33;101109.72;;;0.32;100.00
69751;BME280;57335;52.288;6.056;2022-12-11T04:31:59;101096.00;;;0.32;100.00
69751;BME280;57335;52.288;6.056;2022-12-11T04:34:26;101095.47;;;0.28;100.00
69751;BME280;57335;52.288;6.056;2022-12-11T04:36:52;101098.72;;;0.30;100.00
69751;BME280;57335;52.288;6.056;2022-12-11T04:39:18;101105.78;;;0.38;100.00
69751;BME280;57335;52.288;6.056;2022-12-11T04:41:45;101086.78;;;0.29;100.00
69751;BME280;57335;52.288;6.056;2022-12-11T04:44:11;101093.03;;;0.36;100.00
69751;BME280;57335;52.288;6.056;2022-12-11T04:46:37;101097.22;;;0.37;100.00
69751;BME280;57335;52.288;6.056;2022-12-11T04:49:04;101106.06;;;0.35;100.00
69751;BME280;57335;52.288;6.056;2022-12-11T04:51:30;101096.28;;;0.29;100.00
69751;BME280;57335;52.288;6.056;2022-12-11T04:53:57;101095.06;;;0.33;100.00
69751;BME280;57335;52.288;6.056;2022-12-11T04:56:24;101083.78;;;0.24;100.00
69751;BME280;57335;52.288;6.056;2022-12-11T04:58:50;101093.41;;;0.32;100.00
69751;BME280;57335;52.288;6.056;2022-12-11T05:01:19;101094.09;;;0.34;100.00
69751;BME280;57335;52.288;6.056;2022-12-11T05:03:46;101085.56;;;0.33;100.00
69751;BME280;57335;52.288;6.056;2022-12-11T05:06:13;101087.31;;;0.33;100.00
69751;BME280;57335;52.288;6.056;2022-12-11T05:08:41;101079.84;;;0.30;100.00
69751;BME280;57335;52.288;6.056;2022-12-11T05:11:10;101077.69;;;0.35;100.00
69751;BME280;57335;52.288;6.056;2022-12-11T05:13:37;101082.31;;;0.41;100.00
69751;BME280;57335;52.288;6.056;2022-12-11T05:16:04;101059.09;;;0.31;100.00
69751;BME280;57335;52.288;6.056;2022-12-11T05:18:31;101074.59;;;0.41;100.00
69751;BME280;57335;52.288;6.056;2022-12-11T05:20:58;101076.19;;;0.42;100.00
69751;BME280;57335;52.288;6.056;2022-12-11T05:23:26;101069.69;;;0.38;100.00
69751;BME280;57335;52.288;6.056;2022-12-11T05:25:57;101059.22;;;0.30;100.00
69751;BME280;57335;52.288;6.056;2022-12-11T05:28:27;101075.66;;;0.38;100.00
69751;BME280;57335;52.288;6.056;2022-12-11T05:30:59;101075.78;;;0.37;100.00
69751;BME280;57335;52.288;6.056;2022-12-11T05:33:27;101081.50;;;0.41;100.00
69751;BME280;57335;52.288;6.056;2022-12-11T05:35:54;101065.63;;;0.35;100.00
69751;BME280;57335;52.288;6.056;2022-12-11T05:38:21;101065.59;;;0.26;100.00
69751;BME280;57335;52.288;6.056;2022-12-11T05:41:04;101076.22;;;0.32;100.00
69751;BME280;57335;52.288;6.056;2022-12-11T05:43:32;101075.53;;;0.30;100.00
69751;BME280;57335;52.288;6.056;2022-12-11T05:46:11;101084.06;;;0.31;100.00
69751;BME280;57335;52.288;6.056;2022-12-11T05:48:39;101086.38;;;0.34;100.00
69751;BME280;57335;52.288;6.056;2022-12-11T05:51:06;101087.03;;;0.36;100.00
69751;BME280;57335;52.288;6.056;2022-12-11T05:53:35;101080.53;;;0.32;100.00
69751;BME280;57335;52.288;6.056;2022-12-11T05:56:07;101087.88;;;0.36;100.00
69751;BME280;57335;52.288;6.056;2022-12-11T05:58:34;101082.97;;;0.33;100.00
69751;BME280;57335;52.288;6.056;2022-12-11T06:01:01;101085.69;;;0.32;100.00
69751;BME280;57335;52.288;6.056;2022-12-11T06:03:27;101085.00;;;0.30;100.00
69751;BME280;57335;52.288;6.056;2022-12-11T06:05:53;101080.41;;;0.33;100.00
69751;BME280;57335;52.288;6.056;2022-12-11T06:08:20;101071.16;;;0.21;100.00
69751;BME280;57335;52.288;6.056;2022-12-11T06:10:47;101085.97;;;0.29;100.00
69751;BME280;57335;52.288;6.056;2022-12-11T06:13:14;101080.38;;;0.24;100.00
69751;BME280;57335;52.288;6.056;2022-12-11T06:15:41;101075.22;;;0.24;100.00
69751;BME280;57335;52.288;6.056;2022-12-11T06:18:07;101090.44;;;0.27;100.00
69751;BME280;57335;52.288;6.056;2022-12-11T06:20:34;101088.53;;;0.29;100.00
69751;BME280;57335;52.288;6.056;2022-12-11T06:23:01;101070.91;;;0.24;100.00
69751;BME280;57335;52.288;6.056;2022-12-11T06:25:28;101068.16;;;0.26;100.00
69751;BME280;57335;52.288;6.056;2022-12-11T06:27:55;101075.91;;;0.26;100.00
69751;BME280;57335;52.288;6.056;2022-12-11T06:30:22;101073.84;;;0.19;100.00
69751;BME280;57335;52.288;6.056;2022-12-11T06:33:03;101073.47;;;0.24;100.00
69751;BME280;57335;52.288;6.056;2022-12-11T06:35:30;101084.75;;;0.33;100.00
69751;BME280;57335;52.288;6.056;2022-12-11T06:37:56;101077.00;;;0.33;100.00
69751;BME280;57335;52.288;6.056;2022-12-11T06:40:22;101077.69;;;0.35;100.00
69751;BME280;57335;52.288;6.056;2022-12-11T06:42:49;101072.09;;;0.30;100.00
69751;BME280;57335;52.288;6.056;2022-12-11T06:45:15;101066.56;;;0.25;100.00
69751;BME280;57335;52.288;6.056;2022-12-11T06:47:41;101077.25;;;0.30;100.00
69751;BME280;57335;52.288;6.056;2022-12-11T06:50:08;101065.31;;;0.19;100.00
69751;BME280;57335;52.288;6.056;2022-12-11T06:52:35;101050.78;;;0.18;100.00
69751;BME280;57335;52.288;6.056;2022-12-11T06:55:01;101073.31;;;0.26;100.00
69751;BME280;57335;52.288;6.056;2022-12-11T06:57:27;101079.16;;;0.28;100.00
69751;BME280;57335;52.288;6.056;2022-12-11T06:59:54;101079.44;;;0.25;100.00
69751;BME280;57335;52.288;6.056;2022-12-11T07:02:20;101075.91;;;0.26;100.00
69751;BME280;57335;52.288;6.056;2022-12-11T07:04:46;101091.28;;;0.37;100.00
69751;BME280;57335;52.288;6.056;2022-12-11T07:07:20;101078.22;;;0.29;100.00
69751;BME280;57335;52.288;6.056;2022-12-11T07:09:46;101089.25;;;0.41;100.00
69751;BME280;57335;52.288;6.056;2022-12-11T07:12:12;101090.19;;;0.39;100.00
69751;BME280;57335;52.288;6.056;2022-12-11T07:14:39;101087.72;;;0.38;100.00
69751;BME280;57335;52.288;6.056;2022-12-11T07:17:05;101100.13;;;0.44;100.00
69751;BME280;57335;52.288;6.056;2022-12-11T07:19:32;101093.56;;;0.40;100.00
69751;BME280;57335;52.288;6.056;2022-12-11T07:21:58;101102.94;;;0.41;100.00
69751;BME280;57335;52.288;6.056;2022-12-11T07:24:25;101108.53;;;0.46;100.00
69751;BME280;57335;52.288;6.056;2022-12-11T07:26:51;101093.44;;;0.42;100.00
69751;BME280;57335;52.288;6.056;2022-12-11T07:29:18;101099.56;;;0.50;100.00
69751;BME280;57335;52.288;6.056;2022-12-11T07:31:44;101093.88;;;0.47;100.00
69751;BME280;57335;52.288;6.056;2022-12-11T07:34:12;101105.13;;;0.55;100.00
69751;BME280;57335;52.288;6.056;2022-12-11T07:36:38;101090.47;;;0.46;100.00
69751;BME280;57335;52.288;6.056;2022-12-11T07:39:05;101115.19;;;0.58;100.00
69751;BME280;57335;52.288;6.056;2022-12-11T07:41:31;101100.50;;;0.49;100.00
69751;BME280;57335;52.288;6.056;2022-12-11T07:43:59;101094.13;;;0.44;100.00
69751;BME280;57335;52.288;6.056;2022-12-11T07:46:28;101114.34;;;0.58;100.00
69751;BME280;57335;52.288;6.056;2022-12-11T07:48:54;101118.31;;;0.62;100.00
69751;BME280;57335;52.288;6.056;2022-12-11T07:51:23;101111.94;;;0.56;100.00
69751;BME280;57335;52.288;6.056;2022-12-11T07:53:50;101110.03;;;0.58;100.00
69751;BME280;57335;52.288;6.056;2022-12-11T07:56:18;101106.63;;;0.58;100.00
69751;BME280;57335;52.288;6.056;2022-12-11T07:58:45;101122.41;;;0.65;100.00
69751;BME280;57335;52.288;6.056;2022-12-11T08:01:17;101102.00;;;0.62;100.00
69751;BME280;57335;52.288;6.056;2022-12-11T08:03:44;101111.78;;;0.68;100.00
69751;BME280;57335;52.288;6.056;2022-12-11T08:06:11;101105.16;;;0.65;100.00
69751;BME280;57335;52.288;6.056;2022-12-11T08:08:38;101093.19;;;0.64;100.00
69751;BME280;57335;52.288;6.056;2022-12-11T08:11:08;101100.78;;;0.66;100.00
69751;BME280;57335;52.288;6.056;2022-12-11T08:13:35;101097.16;;;0.68;100.00
69751;BME280;57335;52.288;6.056;2022-12-11T08:16:06;101093.59;;;0.69;100.00
69751;BME280;57335;52.288;6.056;2022-12-11T08:18:33;101096.31;;;0.68;100.00
69751;BME280;57335;52.288;6.056;2022-12-11T08:21:26;101100.69;;;0.77;100.00
69751;BME280;57335;52.288;6.056;2022-12-11T08:23:53;101088.88;;;0.65;100.00
69751;BME280;57335;52.288;6.056;2022-12-11T08:26:23;101087.22;;;0.64;100.00
69751;BME280;57335;52.288;6.056;2022-12-11T08:28:50;101112.34;;;0.71;100.00
69751;BME280;57335;52.288;6.056;2022-12-11T08:31:17;101116.41;;;0.74;100.00
69751;BME280;57335;52.288;6.056;2022-12-11T08:33:44;101124.56;;;0.79;100.00
69751;BME280;57335;52.288;6.056;2022-12-11T08:36:13;101112.91;;;0.75;100.00
69751;BME280;57335;52.288;6.056;2022-12-11T08:38:40;101113.84;;;0.74;100.00
69751;BME280;57335;52.288;6.056;2022-12-11T08:41:21;101116.56;;;0.72;100.00
69751;BME280;57335;52.288;6.056;2022-12-11T08:43:48;101125.00;;;0.74;100.00
69751;BME280;57335;52.288;6.056;2022-12-11T08:46:14;101122.78;;;0.70;100.00
69751;BME280;57335;52.288;6.056;2022-12-11T08:48:41;101122.13;;;0.68;100.00
69751;BME280;57335;52.288;6.056;2022-12-11T08:51:11;101100.63;;;0.48;100.00
69751;BME280;57335;52.288;6.056;2022-12-11T08:53:38;101106.63;;;0.48;100.00
69751;BME280;57335;52.288;6.056;2022-12-11T08:56:12;101129.69;;;0.59;100.00
69751;BME280;57335;52.288;6.056;2022-12-11T08:58:38;101123.63;;;0.61;100.00
69751;BME280;57335;52.288;6.056;2022-12-11T09:01:10;101105.53;;;0.51;100.00
69751;BME280;57335;52.288;6.056;2022-12-11T09:03:38;101112.63;;;0.58;100.00
69751;BME280;57335;52.288;6.056;2022-12-11T09:06:10;101109.06;;;0.59;100.00
69751;BME280;57335;52.288;6.056;2022-12-11T09:08:37;101097.81;;;0.61;100.00
69751;BME280;57335;52.288;6.056;2022-12-11T09:11:06;101098.75;;;0.59;100.00
69751;BME280;57335;52.288;6.056;2022-12-11T09:13:32;101103.13;;;0.69;100.00
69751;BME280;57335;52.288;6.056;2022-12-11T09:15:59;101108.41;;;0.67;100.00
69751;BME280;57335;52.288;6.056;2022-12-11T09:18:25;101090.09;;;0.61;100.00
69751;BME280;57335;52.288;6.056;2022-12-11T09:21:01;101112.63;;;0.68;100.00
69751;BME280;57335;52.288;6.056;2022-12-11T09:23:28;101091.69;;;0.52;100.00
69751;BME280;57335;52.288;6.056;2022-12-11T09:25:54;101098.50;;;0.53;100.00
69751;BME280;57335;52.288;6.056;2022-12-11T09:28:21;101084.22;;;0.49;100.00
69751;BME280;57335;52.288;6.056;2022-12-11T09:30:47;101098.63;;;0.61;100.00
69751;BME280;57335;52.288;6.056;2022-12-11T09:33:14;101081.91;;;0.55;100.00
69751;BME280;57335;52.288;6.056;2022-12-11T09:35:40;101101.22;;;0.71;100.00
69751;BME280;57335;52.288;6.056;2022-12-11T09:38:06;101102.16;;;0.70;100.00
69751;BME280;57335;52.288;6.056;2022-12-11T09:40:33;101105.03;;;0.67;100.00
69751;BME280;57335;52.288;6.056;2022-12-11T09:43:05;101110.84;;;0.69;100.00
69751;BME280;57335;52.288;6.056;2022-12-11T09:45:34;101097.13;;;0.58;100.00
69751;BME280;57335;52.288;6.056;2022-12-11T09:48:01;101112.34;;;0.62;100.00
69751;BME280;57335;52.288;6.056;2022-12-11T09:50:31;101102.69;;;0.54;100.00
69751;BME280;57335;52.288;6.056;2022-12-11T09:53:25;101109.34;;;0.56;100.00
69751;BME280;57335;52.288;6.056;2022-12-11T09:56:05;101088.44;;;0.50;100.00
69751;BME280;57335;52.288;6.056;2022-12-11T10:06:41;101100.63;;;0.38;100.00
69751;BME280;57335;52.288;6.056;2022-12-11T10:09:18;101112.56;;;0.39;100.00
69751;BME280;57335;52.288;6.056;2022-12-11T10:14:43;101114.75;;;0.44;100.00
69751;BME280;57335;52.288;6.056;2022-12-11T10:17:19;101113.69;;;0.46;100.00
69751;BME280;57335;52.288;6.056;2022-12-11T10:19:47;101117.44;;;0.42;100.00
69751;BME280;57335;52.288;6.056;2022-12-11T10:22:22;101110.25;;;0.36;100.00
69751;BME280;57335;52.288;6.056;2022-12-11T10:25:04;101108.88;;;0.32;100.00
69751;BME280;57335;52.288;6.056;2022-12-11T10:27:39;101113.13;;;0.43;100.00
69751;BME280;57335;52.288;6.056;2022-12-11T10:30:13;101102.38;;;0.37;100.00
69751;BME280;57335;52.288;6.056;2022-12-11T10:33:06;101105.28;;;0.44;100.00
69751;BME280;57335;52.288;6.056;2022-12-11T10:36:09;101098.47;;;0.43;100.00
69751;BME280;57335;52.288;6.056;2022-12-11T10:38:43;101089.81;;;0.44;100.00
69751;BME280;57335;52.288;6.056;2022-12-11T10:41:13;101086.25;;;0.35;100.00
69751;BME280;57335;52.288;6.056;2022-12-11T10:43:44;101086.25;;;0.45;100.00
69751;BME280;57335;52.288;6.056;2022-12-11T10:46:23;101087.75;;;0.48;100.00
69751;BME280;57335;52.288;6.056;2022-12-11T10:48:55;101094.25;;;0.52;100.00
69751;BME280;57335;52.288;6.056;2022-12-11T10:51:42;101099.19;;;0.65;100.00
69751;BME280;57335;52.288;6.056;2022-12-11T10:54:37;101090.09;;;0.70;100.00
69751;BME280;57335;52.288;6.056;2022-12-11T10:57:06;101082.50;;;0.69;100.00
69751;BME280;57335;52.288;6.056;2022-12-11T10:59:40;101076.38;;;0.70;100.00
69751;BME280;57335;52.288;6.056;2022-12-11T11:02:23;101081.41;;;0.71;100.00
69751;BME280;57335;52.288;6.056;2022-12-11T11:04:51;101085.47;;;0.74;100.00
69751;BME280;57335;52.288;6.056;2022-12-11T11:07:23;101078.69;;;0.73;100.00
69751;BME280;57335;52.288;6.056;2022-12-11T11:10:03;101082.88;;;0.74;100.00
69751;BME280;57335;52.288;6.056;2022-12-11T11:12:45;101082.75;;;0.75;100.00
69751;BME280;57335;52.288;6.056;2022-12-11T11:15:17;101078.13;;;0.79;100.00
69751;BME280;57335;52.288;6.056;2022-12-11T11:20:25;101072.69;;;0.82;100.00
69751;BME280;57335;52.288;6.056;2022-12-11T11:22:55;101065.25;;;0.79;100.00
69751;BME280;57335;52.288;6.056;2022-12-11T11:25:24;101056.28;;;0.73;100.00
69751;BME280;57335;52.288;6.056;2022-12-11T11:27:54;101044.47;;;0.71;100.00
69751;BME280;57335;52.288;6.056;2022-12-11T11:32:52;101043.50;;;0.72;100.00
69751;BME280;57335;52.288;6.056;2022-12-11T11:35:22;101054.38;;;0.75;100.00
69751;BME280;57335;52.288;6.056;2022-12-11T11:37:59;101064.94;;;0.82;100.00
69751;BME280;57335;52.288;6.056;2022-12-11T11:40:35;101054.50;;;0.84;100.00
69751;BME280;57335;52.288;6.056;2022-12-11T11:43:16;101045.28;;;0.81;100.00
69751;BME280;57335;52.288;6.056;2022-12-11T11:45:53;101049.47;;;0.82;100.00
69751;BME280;57335;52.288;6.056;2022-12-11T11:48:30;101054.78;;;0.81;100.00
69751;BME280;57335;52.288;6.056;2022-12-11T11:51:05;101051.94;;;0.84;100.00
69751;BME280;57335;52.288;6.056;2022-12-11T11:53:34;101038.47;;;0.80;100.00
69751;BME280;57335;52.288;6.056;2022-12-11T11:56:26;101049.47;;;0.92;100.00
69751;BME280;57335;52.288;6.056;2022-12-11T11:59:00;101037.66;;;0.89;100.00
69751;BME280;57335;52.288;6.056;2022-12-11T12:01:28;101042.28;;;0.86;100.00
69751;BME280;57335;52.288;6.056;2022-12-11T12:03:56;101019.88;;;0.86;100.00
69751;BME280;57335;52.288;6.056;2022-12-11T12:06:38;101031.28;;;0.93;100.00
69751;BME280;57335;52.288;6.056;2022-12-11T12:09:31;101030.03;;;0.97;100.00
69751;BME280;57335;52.288;6.056;2022-12-11T12:12:14;101039.81;;;1.04;100.00
69751;BME280;57335;52.288;6.056;2022-12-11T12:15:14;101028.13;;;0.99;100.00
69751;BME280;57335;52.288;6.056;2022-12-11T12:17:53;101037.38;;;1.02;100.00
69751;BME280;57335;52.288;6.056;2022-12-11T12:20:30;101036.00;;;1.08;100.00
69751;BME280;57335;52.288;6.056;2022-12-11T12:23:06;101027.03;;;1.12;100.00
69751;BME280;57335;52.288;6.056;2022-12-11T12:25:41;101031.38;;;1.11;100.00
69751;BME280;57335;52.288;6.056;2022-12-11T12:37:21;101026.47;;;1.18;100.00
69751;BME280;57335;52.288;6.056;2022-12-11T12:40:09;101012.88;;;1.16;100.00
69751;BME280;57335;52.288;6.056;2022-12-11T12:42:54;101026.19;;;1.21;100.00
69751;BME280;57335;52.288;6.056;2022-12-11T12:45:40;101014.66;;;1.15;100.00
69751;BME280;57335;52.288;6.056;2022-12-11T12:48:11;101014.00;;;1.13;100.00
69751;BME280;57335;52.288;6.056;2022-12-11T12:50:41;101025.91;;;1.24;100.00
69751;BME280;57335;52.288;6.056;2022-12-11T12:53:15;101019.56;;;1.18;100.00
69751;BME280;57335;52.288;6.056;2022-12-11T12:55:44;101024.03;;;1.16;99.99
69751;BME280;57335;52.288;6.056;2022-12-11T13:01:13;101028.53;;;1.14;100.00
69751;BME280;57335;52.288;6.056;2022-12-11T13:06:36;101027.31;;;1.09;100.00
69751;BME280;57335;52.288;6.056;2022-12-11T13:09:23;101037.34;;;1.12;100.00
69751;BME280;57335;52.288;6.056;2022-12-11T13:11:52;101029.50;;;1.04;100.00
69751;BME280;57335;52.288;6.056;2022-12-11T13:16:47;101017.28;;;0.96;100.00
69751;BME280;57335;52.288;6.056;2022-12-11T13:24:32;101029.50;;;1.04;100.00
69751;BME280;57335;52.288;6.056;2022-12-11T13:27:24;101014.69;;;0.96;100.00
69751;BME280;57335;52.288;6.056;2022-12-11T13:29:51;101031.00;;;0.96;100.00
69751;BME280;57335;52.288;6.056;2022-12-11T13:34:54;101029.91;;;0.99;100.00
69751;BME280;57335;52.288;6.056;2022-12-11T13:37:34;101045.53;;;0.97;100.00
69751;BME280;57335;52.288;6.056;2022-12-11T13:40:06;101037.13;;;0.95;100.00
69751;BME280;57335;52.288;6.056;2022-12-11T13:42:39;101026.81;;;0.86;100.00
69751;BME280;57335;52.288;6.056;2022-12-11T13:45:20;101030.19;;;0.86;100.00
69751;BME280;57335;52.288;6.056;2022-12-11T13:47:48;101019.19;;;0.84;100.00
69751;BME280;57335;52.288;6.056;2022-12-11T13:50:23;101026.41;;;0.90;100.00
69751;BME280;57335;52.288;6.056;2022-12-11T13:52:54;101038.75;;;0.96;100.00
69751;BME280;57335;52.288;6.056;2022-12-11T13:55:29;101031.81;;;0.97;100.00
69751;BME280;57335;52.288;6.056;2022-12-11T13:57:56;101033.72;;;0.95;100.00